VAC chart of LPFR
IAC chart of LPFR
ADC chart of LPFR
Satellite view of LPFR
image banner adimage banner adimage banner ad
image banner ad

LPFR - Faro

Located in Faro, Portugal

ICAO - LPFR, IATA - FAO

Data provided by Airmate  

General information

Coordinates: N37°0'52" W7°57'57"
Elevation is 24 feet MSL.
Magnetic variation is -001.4352° East
Rated:
View ratings:
[VIEW]
View others Airports in Faro District

Operational data

Special qualification required
Current time UTC:
Current local time:
Weather
METAR: LPFR 021030Z 08008KT 9999 FEW015 14/09 Q1029
TAF: TAF LPFR 020500Z 0206/0306 06005KT CAVOK BECMG 0209/0212 10010KT BECMG 0218/0221 02005KT BECMG 0303/0306 08010KT
View NOTAMs / SUP AIP / TFR affecting this airport [VIEW]
Communications frequencies: [VIEW]

Runways:

RWY identifierQFULength (ft)Width (ft)SurfaceLDA (ft)
10100°8169148ASPH8022
28280°8169148ASPH8022

Airport contact information

Address: Faro Portugal

Handlers

Omni Handling

Omni Handling
[VIEW][VIEW]
+351914641743

Skyvalet

Skyvalet

Wexjet Aviation

Wexjet Aviation
[VIEW][VIEW]
+351915343579

Portway

Portway

Pts Executive Handling

Pts Executive Handling
[VIEW][VIEW]
+351914395999

Safeport

Safeport
[VIEW][VIEW]
+351910285371

Other aviation service providers

Aviation club (not for profit)

Aero Clube Do Algarve

Aero Clube Do Algarve

Satellite view of LPFR